Time;durP1;ratioP1;P1;durP2;ratioP2;P2;SDS_P1;SDS_P2;PMS_P1;PMS_P2;Temp;Humidity;BMP_temperature;BMP_pressure;BME280_temperature;BME280_humidity;BME280_pressure;Samples;Min_cycle;Max_cycle;Signal;HPM_P1;HPM_P2
2023/02/24 00:02:22;;;;;;;90.30;49.15;;;;;;;;;;6240592;28;20049;-74
2023/02/24 00:05:24;;;;;;;91.57;49.78;;;;;;;;;;6241655;28;20071;-74
2023/02/24 00:08:26;;;;;;;150.45;75.63;;;;;;;;;;6240058;28;20109;-74
2023/02/24 00:11:27;;;;;;;177.40;89.50;;;;;;;;;;6237798;28;20076;-74
2023/02/24 00:14:32;;;;;;;207.35;107.32;;;;;;;;;;6240799;28;20064;-74
2023/02/24 00:17:37;;;;;;;81.90;43.38;;;;;;;;;;6241694;28;20464;-75
2023/02/24 00:20:39;;;;;;;78.22;41.35;;;;;;;;;;6241934;28;20053;-73
2023/02/24 00:23:42;;;;;;;80.28;41.15;;;;;;;;;;6238751;28;20049;-74
2023/02/24 00:26:44;;;;;;;80.50;42.83;;;;;;;;;;6239214;28;20057;-74
2023/02/24 00:29:48;;;;;;;77.03;40.72;;;;;;;;;;6237993;28;20088;-72
2023/02/24 00:32:50;;;;;;;76.38;40.70;;;;;;;;;;6242427;28;20260;-68
2023/02/24 00:35:51;;;;;;;73.25;40.53;;;;;;;;;;6266866;28;20049;-72
2023/02/24 00:38:56;;;;;;;76.03;40.10;;;;;;;;;;6258775;28;20056;-71
2023/02/24 00:42:03;;;;;;;83.32;42.42;;;;;;;;;;6264811;28;20139;-72
2023/02/24 00:45:09;;;;;;;79.70;42.00;;;;;;;;;;6265244;28;20083;-71
2023/02/24 00:48:10;;;;;;;80.40;42.25;;;;;;;;;;6263408;28;20056;-72
2023/02/24 00:51:13;;;;;;;79.93;41.80;;;;;;;;;;6260908;28;20083;-73
2023/02/24 00:54:16;;;;;;;77.82;42.15;;;;;;;;;;6261960;28;20059;-68
2023/02/24 00:57:19;;;;;;;83.20;42.40;;;;;;;;;;6262149;28;20053;-72
2023/02/24 01:00:23;;;;;;;81.22;42.58;;;;;;;;;;6263510;28;20102;-71
2023/02/24 01:03:25;;;;;;;85.72;44.38;;;;;;;;;;6261366;28;20061;-71
2023/02/24 01:06:28;;;;;;;83.00;44.28;;;;;;;;;;6262642;28;20041;-72
2023/02/24 01:09:33;;;;;;;83.35;43.38;;;;;;;;;;6265606;28;20122;-68
2023/02/24 01:12:51;;;;;;;74.53;41.83;;;;;;;;;;6262524;28;20345;-72
2023/02/24 01:16:01;;;;;;;84.20;43.70;;;;;;;;;;6262214;28;20041;-72
2023/02/24 01:19:04;;;;;;;85.95;44.05;;;;;;;;;;6262915;28;21098;-69
2023/02/24 01:22:08;;;;;;;84.25;44.42;;;;;;;;;;6261696;28;20060;-72
2023/02/24 01:25:10;;;;;;;;;;;;;;;;;;6259938;28;20368;-71
2023/02/24 01:28:12;;;;;;;82.32;44.05;;;;;;;;;;6262088;28;20148;-71
2023/02/24 01:31:18;;;;;;;87.28;44.83;;;;;;;;;;6261453;28;20249;-67
2023/02/24 01:34:20;;;;;;;90.45;47.08;;;;;;;;;;6260558;28;20053;-72
2023/02/24 01:37:22;;;;;;;92.18;46.90;;;;;;;;;;6264582;28;20411;-70
2023/02/24 01:40:25;;;;;;;94.53;46.65;;;;;;;;;;6264225;28;20409;-72
2023/02/24 01:43:27;;;;;;;90.38;45.80;;;;;;;;;;6268094;28;20052;-69
2023/02/24 01:46:32;;;;;;;90.85;45.05;;;;;;;;;;6266932;28;20045;-72
2023/02/24 01:49:36;;;;;;;86.57;46.08;;;;;;;;;;6265444;28;20045;-72
2023/02/24 01:52:38;;;;;;;86.82;46.28;;;;;;;;;;6267144;28;20053;-68
2023/02/24 01:55:45;;;;;;;85.70;43.75;;;;;;;;;;6266554;28;20108;-71
2023/02/24 01:58:48;;;;;;;89.20;46.38;;;;;;;;;;6268108;28;20256;-70
2023/02/24 02:01:54;;;;;;;90.97;45.53;;;;;;;;;;6241207;28;20045;-72
2023/02/24 02:04:57;;;;;;;83.05;44.92;;;;;;;;;;6241025;28;20050;-72
2023/02/24 02:07:59;;;;;;;88.05;44.95;;;;;;;;;;6265481;28;20353;-73
2023/02/24 02:11:05;;;;;;;85.20;45.08;;;;;;;;;;6268474;28;20068;-71
2023/02/24 02:14:06;;;;;;;87.90;46.72;;;;;;;;;;6264805;28;20049;-70
2023/02/24 02:17:15;;;;;;;85.70;45.22;;;;;;;;;;6270438;28;20056;-72
2023/02/24 02:20:52;;;;;;;84.45;45.88;;;;;;;;;;6265909;28;20049;-72
2023/02/24 02:24:15;;;;;;;86.60;44.63;;;;;;;;;;6269434;28;20037;-71
2023/02/24 02:27:28;;;;;;;92.10;47.53;;;;;;;;;;6269451;28;20131;-72
2023/02/24 02:31:02;;;;;;;88.80;45.45;;;;;;;;;;6269850;28;20177;-70
2023/02/24 02:34:16;;;;;;;88.45;45.35;;;;;;;;;;6246988;28;20041;-67
2023/02/24 02:37:24;;;;;;;91.35;47.45;;;;;;;;;;6268986;28;20061;-71
2023/02/24 02:40:28;;;;;;;94.70;47.90;;;;;;;;;;6267664;28;20049;-69
2023/02/24 02:43:33;;;;;;;92.75;46.67;;;;;;;;;;6269059;28;20230;-71
2023/02/24 02:46:40;;;;;;;90.10;47.63;;;;;;;;;;6272604;28;20378;-72
2023/02/24 02:49:45;;;;;;;91.72;47.67;;;;;;;;;;6269537;28;20045;-73
2023/02/24 02:52:52;;;;;;;97.25;48.85;;;;;;;;;;6268687;28;20065;-71
2023/02/24 02:55:56;;;;;;;93.95;49.00;;;;;;;;;;6251933;28;20083;-73
2023/02/24 02:58:59;;;;;;;97.90;47.88;;;;;;;;;;6265226;28;20244;-71
2023/02/24 03:02:10;;;;;;;96.22;49.17;;;;;;;;;;6265929;28;20046;-72
2023/02/24 03:05:19;;;;;;;95.90;49.72;;;;;;;;;;6267103;28;20053;-73
2023/02/24 03:08:24;;;;;;;92.43;50.20;;;;;;;;;;6267914;28;20061;-72
2023/02/24 03:11:26;;;;;;;99.28;51.53;;;;;;;;;;6265676;28;20336;-69
2023/02/24 03:14:32;;;;;;;103.30;52.47;;;;;;;;;;6265789;28;20068;-74
2023/02/24 03:17:41;;;;;;;99.10;50.95;;;;;;;;;;6268680;28;20064;-72
2023/02/24 03:20:47;;;;;;;101.97;49.78;;;;;;;;;;6264118;28;20088;-73
2023/02/24 03:23:50;;;;;;;99.60;50.80;;;;;;;;;;6266984;28;20385;-74
2023/02/24 03:26:56;;;;;;;100.53;51.53;;;;;;;;;;6268043;28;20076;-73
2023/02/24 03:30:05;;;;;;;94.28;50.05;;;;;;;;;;6266485;28;20065;-74
2023/02/24 03:33:15;;;;;;;101.53;51.38;;;;;;;;;;6252780;28;20045;-74
2023/02/24 03:36:19;;;;;;;97.97;50.13;;;;;;;;;;6243930;28;20222;-74
2023/02/24 03:39:20;;;;;;;97.38;50.45;;;;;;;;;;6245524;28;20049;-73
2023/02/24 03:42:23;;;;;;;104.55;50.53;;;;;;;;;;6247163;28;20065;-73
2023/02/24 03:45:26;;;;;;;97.85;51.33;;;;;;;;;;6245547;28;20118;-73
2023/02/24 03:48:29;;;;;;;104.80;51.73;;;;;;;;;;6244406;28;20160;-74
2023/02/24 03:51:32;;;;;;;104.80;51.80;;;;;;;;;;6241872;28;20121;-74
2023/02/24 03:54:49;;;;;;;103.75;51.35;;;;;;;;;;6241794;28;20060;-74
2023/02/24 03:58:01;;;;;;;103.55;52.08;;;;;;;;;;6251004;28;20049;-73
2023/02/24 04:01:09;;;;;;;105.80;52.22;;;;;;;;;;6266304;28;20059;-72
2023/02/24 04:04:17;;;;;;;105.95;51.58;;;;;;;;;;6268097;28;20045;-73
2023/02/24 04:07:27;;;;;;;102.20;53.72;;;;;;;;;;6268346;28;20157;-73
2023/02/24 04:10:32;;;;;;;102.97;52.58;;;;;;;;;;6268801;28;20356;-71
2023/02/24 04:13:38;;;;;;;102.75;50.63;;;;;;;;;;6268193;28;20236;-71
2023/02/24 04:16:43;;;;;;;103.93;51.58;;;;;;;;;;6266293;28;20083;-71
2023/02/24 04:19:46;;;;;;;104.82;52.83;;;;;;;;;;6268553;28;20095;-70
2023/02/24 04:22:53;;;;;;;104.70;52.47;;;;;;;;;;6270637;28;20120;-72
2023/02/24 04:25:55;;;;;;;97.10;52.63;;;;;;;;;;6265056;28;20041;-72
2023/02/24 04:28:57;;;;;;;96.43;50.58;;;;;;;;;;6264691;28;20045;-70
2023/02/24 04:32:03;;;;;;;101.90;51.03;;;;;;;;;;6269360;28;20061;-71
2023/02/24 04:35:06;;;;;;;104.68;51.17;;;;;;;;;;6268775;28;20061;-72
2023/02/24 04:38:09;;;;;;;98.38;50.70;;;;;;;;;;6267288;28;20045;-71
2023/02/24 04:41:11;;;;;;;103.27;53.17;;;;;;;;;;6265650;28;20045;-71
2023/02/24 04:44:13;;;;;;;103.38;50.40;;;;;;;;;;6266634;28;20563;-71
2023/02/24 04:47:15;;;;;;;101.38;49.75;;;;;;;;;;6264753;28;20101;-71
2023/02/24 04:50:22;;;;;;;98.85;51.03;;;;;;;;;;6266429;28;20356;-71
2023/02/24 04:53:26;;;;;;;111.45;52.95;;;;;;;;;;6265945;28;20057;-71
2023/02/24 04:56:27;;;;;;;103.10;51.97;;;;;;;;;;6261062;28;20560;-70
2023/02/24 04:59:29;;;;;;;102.95;53.35;;;;;;;;;;6262010;28;21218;-70
2023/02/24 05:02:31;;;;;;;105.90;53.05;;;;;;;;;;6262506;28;20337;-72
2023/02/24 05:05:33;;;;;;;111.35;53.67;;;;;;;;;;6262317;28;20063;-70
2023/02/24 05:08:37;;;;;;;110.03;55.13;;;;;;;;;;6265360;28;20369;-71
2023/02/24 05:11:41;;;;;;;111.07;55.05;;;;;;;;;;6260771;28;20048;-71
2023/02/24 05:14:43;;;;;;;108.95;54.22;;;;;;;;;;6268102;28;20057;-69
2023/02/24 05:17:45;;;;;;;115.22;56.42;;;;;;;;;;6269435;28;20159;-71
2023/02/24 05:24:16;;;;;;;110.18;54.70;;;;;;;;;;6267560;28;20076;-71
2023/02/24 05:27:17;;;;;;;114.28;55.08;;;;;;;;;;6266865;28;20063;-72
2023/02/24 05:30:19;;;;;;;116.05;55.78;;;;;;;;;;6269300;28;20065;-71
2023/02/24 05:33:21;;;;;;;109.28;54.45;;;;;;;;;;6268707;28;20069;-71
2023/02/24 05:36:24;;;;;;;108.53;55.90;;;;;;;;;;6269244;28;20048;-71
2023/02/24 05:39:28;;;;;;;111.70;55.60;;;;;;;;;;6268185;28;20380;-70
2023/02/24 05:42:33;;;;;;;112.55;57.03;;;;;;;;;;6264305;28;20053;-71
2023/02/24 05:45:36;;;;;;;106.57;53.85;;;;;;;;;;6267658;28;20075;-71
2023/02/24 05:48:38;;;;;;;112.18;56.08;;;;;;;;;;6265304;28;20076;-71
2023/02/24 05:51:42;;;;;;;112.30;54.40;;;;;;;;;;6264934;28;20057;-71
2023/02/24 05:54:47;;;;;;;115.07;56.45;;;;;;;;;;6267999;28;20084;-71
2023/02/24 05:57:49;;;;;;;114.88;55.78;;;;;;;;;;6268795;28;20053;-69
2023/02/24 06:00:51;;;;;;;104.03;52.13;;;;;;;;;;6263973;28;20049;-72
2023/02/24 06:03:53;;;;;;;104.43;53.30;;;;;;;;;;6265440;28;20056;-72
2023/02/24 06:06:54;;;;;;;106.55;52.85;;;;;;;;;;6269862;28;20057;-71
2023/02/24 06:09:59;;;;;;;110.03;53.88;;;;;;;;;;6270431;28;20616;-70
2023/02/24 06:13:00;;;;;;;;;;;;;;;;;;6266616;28;20245;-73
2023/02/24 06:16:02;;;;;;;102.05;53.05;;;;;;;;;;6264016;28;19921;-74
2023/02/24 06:19:04;;;;;;;110.72;53.67;;;;;;;;;;6266508;28;20057;-69
2023/02/24 06:22:10;;;;;;;108.93;52.65;;;;;;;;;;6266940;28;20080;-69
2023/02/24 06:25:13;;;;;;;106.22;54.03;;;;;;;;;;6270156;28;20057;-69
2023/02/24 06:28:16;;;;;;;85.25;40.22;;;;;;;;;;6273568;28;20072;-69
2023/02/24 06:31:19;;;;;;;100.57;50.75;;;;;;;;;;6267583;28;20085;-69
2023/02/24 06:34:21;;;;;;;110.43;52.17;;;;;;;;;;6265395;28;20052;-70
2023/02/24 06:37:23;;;;;;;108.05;54.75;;;;;;;;;;6267767;28;20045;-69
2023/02/24 06:40:26;;;;;;;114.13;52.40;;;;;;;;;;6263743;28;20071;-69
2023/02/24 06:43:28;;;;;;;105.30;53.15;;;;;;;;;;6261991;28;20456;-71
2023/02/24 06:46:29;;;;;;;107.25;52.65;;;;;;;;;;6267638;28;20053;-72
2023/02/24 06:49:31;;;;;;;105.63;52.05;;;;;;;;;;6265692;28;20059;-72
2023/02/24 06:52:33;;;;;;;115.47;53.90;;;;;;;;;;6269945;28;20049;-72
2023/02/24 06:55:38;;;;;;;110.35;54.08;;;;;;;;;;6266250;28;20136;-79
2023/02/24 06:58:42;;;;;;;101.53;52.55;;;;;;;;;;6266549;28;20194;-77
2023/02/24 07:01:45;;;;;;;;;;;;;;;;;;6265518;28;20064;-72
2023/02/24 07:04:47;;;;;;;105.00;51.60;;;;;;;;;;6267733;28;19939;-84
2023/02/24 07:07:50;;;;;;;102.75;53.05;;;;;;;;;;6265377;28;20057;-82
2023/02/24 07:10:54;;;;;;;112.93;54.20;;;;;;;;;;6263179;28;20053;-84
2023/02/24 07:13:56;;;;;;;114.20;52.83;;;;;;;;;;6265466;28;20049;-78
2023/02/24 07:16:58;;;;;;;112.90;55.05;;;;;;;;;;6263533;28;20057;-81
2023/02/24 07:20:09;;;;;;;109.97;54.92;;;;;;;;;;6265449;28;20056;-83
2023/02/24 07:23:11;;;;;;;102.78;52.80;;;;;;;;;;6267038;28;20082;-80
2023/02/24 07:26:15;;;;;;;108.85;52.75;;;;;;;;;;6262967;28;20063;-80
2023/02/24 07:29:17;;;;;;;100.25;51.65;;;;;;;;;;6262006;28;20057;-80
2023/02/24 07:32:21;;;;;;;107.88;52.38;;;;;;;;;;6265613;28;20057;-82
2023/02/24 07:35:23;;;;;;;103.95;52.30;;;;;;;;;;6264752;28;20067;-83
2023/02/24 07:38:25;;;;;;;110.28;55.60;;;;;;;;;;6265248;28;20087;-84
2023/02/24 07:41:28;;;;;;;102.95;50.65;;;;;;;;;;6263673;28;20049;-79
2023/02/24 07:44:31;;;;;;;105.47;54.83;;;;;;;;;;6264908;28;20060;-82
2023/02/24 07:47:34;;;;;;;102.23;51.90;;;;;;;;;;6263219;28;20543;-80
2023/02/24 07:50:36;;;;;;;99.78;49.67;;;;;;;;;;6262367;28;20487;-69
2023/02/24 07:53:39;;;;;;;89.55;47.65;;;;;;;;;;6267597;28;20329;-69
2023/02/24 07:56:47;;;;;;;103.68;51.45;;;;;;;;;;6262982;28;20068;-68
2023/02/24 07:59:49;;;;;;;103.00;50.72;;;;;;;;;;6263207;28;20152;-68
2023/02/24 08:02:51;;;;;;;104.53;51.20;;;;;;;;;;6266178;28;20049;-67
2023/02/24 08:05:57;;;;;;;102.97;50.60;;;;;;;;;;6264743;28;20060;-68
2023/02/24 08:09:15;;;;;;;101.60;53.10;;;;;;;;;;6259599;28;20334;-69
2023/02/24 08:12:21;;;;;;;100.13;50.67;;;;;;;;;;6264125;28;20049;-68
2023/02/24 08:15:24;;;;;;;106.28;53.75;;;;;;;;;;6264591;28;20049;-68
2023/02/24 08:18:27;;;;;;;102.15;51.72;;;;;;;;;;6254115;28;20067;-68
2023/02/24 08:21:36;;;;;;;106.50;53.03;;;;;;;;;;6241599;28;20102;-68
2023/02/24 08:24:38;;;;;;;104.20;54.08;;;;;;;;;;6243172;28;20117;-67
2023/02/24 08:27:41;;;;;;;111.40;53.45;;;;;;;;;;6239435;28;20053;-68
2023/02/24 08:30:44;;;;;;;101.55;51.22;;;;;;;;;;6236546;28;20321;-69
2023/02/24 08:33:46;;;;;;;102.47;52.43;;;;;;;;;;6237859;28;20072;-67
2023/02/24 08:36:54;;;;;;;100.45;49.75;;;;;;;;;;6239945;28;20251;-68
2023/02/24 08:39:56;;;;;;;101.60;53.47;;;;;;;;;;6261246;28;20045;-68
2023/02/24 08:43:14;;;;;;;106.38;53.47;;;;;;;;;;6265005;28;20049;-68
2023/02/24 08:46:19;;;;;;;111.68;54.03;;;;;;;;;;6267995;28;20049;-65
2023/02/24 08:49:23;;;;;;;106.72;52.42;;;;;;;;;;6264467;28;20240;-68
2023/02/24 08:52:26;;;;;;;110.00;54.10;;;;;;;;;;6267788;28;20736;-68
2023/02/24 08:55:31;;;;;;;101.82;53.60;;;;;;;;;;6243572;28;20298;-67
2023/02/24 08:58:39;;;;;;;102.13;53.42;;;;;;;;;;6239072;28;20065;-67
2023/02/24 09:01:53;;;;;;;102.28;51.30;;;;;;;;;;6238620;28;20270;-66
2023/02/24 09:04:57;;;;;;;100.63;52.20;;;;;;;;;;6239054;28;20053;-67
2023/02/24 09:07:58;;;;;;;100.97;52.38;;;;;;;;;;6237009;28;20049;-67
2023/02/24 09:11:06;;;;;;;97.93;50.38;;;;;;;;;;6244610;28;20318;-67
2023/02/24 09:14:15;;;;;;;106.22;51.83;;;;;;;;;;6240735;28;20052;-68
2023/02/24 09:17:19;;;;;;;96.82;49.85;;;;;;;;;;6240856;28;20142;-69
2023/02/24 09:23:45;;;;;;;93.82;50.88;;;;;;;;;;6239585;28;20053;-67
2023/02/24 09:26:47;;;;;;;91.50;48.15;;;;;;;;;;6238241;28;20346;-71
2023/02/24 09:29:50;;;;;;;100.43;53.17;;;;;;;;;;6231210;28;20427;-70
2023/02/24 09:32:59;;;;;;;98.30;49.55;;;;;;;;;;6232879;28;20069;-71
2023/02/24 09:36:08;;;;;;;97.25;50.88;;;;;;;;;;6240122;28;20069;-72
2023/02/24 09:39:13;;;;;;;98.15;49.67;;;;;;;;;;6245811;28;20199;-71
2023/02/24 09:42:31;;;;;;;101.35;51.92;;;;;;;;;;6237590;28;20060;-69
2023/02/24 09:45:34;;;;;;;98.35;51.40;;;;;;;;;;6237398;28;20265;-66
2023/02/24 09:48:43;;;;;;;105.63;54.05;;;;;;;;;;6237915;28;20124;-69
2023/02/24 09:51:52;;;;;;;100.18;49.60;;;;;;;;;;6237817;28;20245;-70
2023/02/24 09:55:17;;;;;;;95.18;49.17;;;;;;;;;;6237222;28;20053;-69
2023/02/24 09:58:23;;;;;;;90.90;48.80;;;;;;;;;;6239485;28;20041;-69
2023/02/24 10:01:42;;;;;;;90.55;47.05;;;;;;;;;;6243004;28;20057;-70
2023/02/24 10:04:52;;;;;;;87.13;47.60;;;;;;;;;;6242544;28;20058;-69
2023/02/24 10:07:55;;;;;;;92.07;49.03;;;;;;;;;;6244245;28;20046;-66
2023/02/24 10:11:05;;;;;;;91.90;49.43;;;;;;;;;;6243075;28;20053;-70
2023/02/24 10:14:18;;;;;;;90.55;48.45;;;;;;;;;;6242940;28;20353;-69
2023/02/24 10:17:24;;;;;;;94.20;50.58;;;;;;;;;;6238988;28;20191;-70
2023/02/24 10:20:38;;;;;;;94.60;49.25;;;;;;;;;;6241527;28;20061;-71
2023/02/24 10:23:55;;;;;;;91.55;50.08;;;;;;;;;;6245457;28;20060;-71
2023/02/24 10:26:59;;;;;;;93.68;48.70;;;;;;;;;;6243067;28;20073;-69
2023/02/24 10:30:09;;;;;;;98.50;50.75;;;;;;;;;;6251193;28;20391;-70
2023/02/24 10:33:37;;;;;;;85.82;47.97;;;;;;;;;;6265245;28;20365;-69
2023/02/24 10:36:40;;;;;;;92.43;50.15;;;;;;;;;;6265881;28;20632;-70
2023/02/24 10:39:42;;;;;;;95.50;50.58;;;;;;;;;;6266454;28;20123;-70
2023/02/24 10:42:46;;;;;;;86.22;48.42;;;;;;;;;;6266223;28;20064;-69
2023/02/24 10:45:54;;;;;;;87.57;48.50;;;;;;;;;;6264106;28;20241;-70
2023/02/24 10:49:00;;;;;;;87.18;49.53;;;;;;;;;;6268918;28;20056;-69
2023/02/24 10:52:07;;;;;;;89.25;50.22;;;;;;;;;;6266592;28;20045;-69
2023/02/24 10:55:27;;;;;;;88.95;48.00;;;;;;;;;;6264524;28;20061;-68
2023/02/24 10:58:43;;;;;;;87.63;49.00;;;;;;;;;;6266672;28;20069;-67
2023/02/24 11:01:58;;;;;;;85.45;47.92;;;;;;;;;;6266718;28;20717;-69
2023/02/24 11:05:25;;;;;;;86.30;50.90;;;;;;;;;;6265171;28;20303;-70
2023/02/24 11:08:38;;;;;;;86.20;48.65;;;;;;;;;;6265879;28;20087;-69
2023/02/24 11:18:18;;;;;;;86.82;49.92;;;;;;;;;;6267192;28;20248;-70
2023/02/24 11:21:23;;;;;;;129.57;81.60;;;;;;;;;;6268062;28;20049;-72
2023/02/24 11:24:26;;;;;;;140.35;81.55;;;;;;;;;;6265622;28;20080;-73
2023/02/24 11:27:28;;;;;;;258.67;136.98;;;;;;;;;;6263460;28;20071;-69
2023/02/24 11:30:37;;;;;;;90.68;53.55;;;;;;;;;;6264383;28;20060;-70
2023/02/24 11:33:41;;;;;;;78.10;46.20;;;;;;;;;;6263738;28;20040;-70
2023/02/24 11:36:53;;;;;;;74.90;44.80;;;;;;;;;;6265473;28;20049;-71
2023/02/24 11:39:59;;;;;;;80.53;46.40;;;;;;;;;;6264577;28;20045;-70
2023/02/24 11:43:04;;;;;;;86.50;47.85;;;;;;;;;;6264770;28;20321;-70
2023/02/24 11:46:10;;;;;;;82.72;46.42;;;;;;;;;;6264847;28;20257;-71
2023/02/24 11:49:24;;;;;;;80.32;46.70;;;;;;;;;;6263296;28;20106;-71
2023/02/24 11:52:31;;;;;;;79.65;44.42;;;;;;;;;;6265043;28;20049;-71
2023/02/24 11:55:37;;;;;;;86.97;46.85;;;;;;;;;;6265384;28;20053;-70
2023/02/24 11:58:44;;;;;;;79.35;47.35;;;;;;;;;;6266642;28;20337;-71
2023/02/24 12:01:50;;;;;;;83.68;46.72;;;;;;;;;;6264982;28;20217;-70
2023/02/24 12:04:57;;;;;;;86.18;47.05;;;;;;;;;;6262773;28;20064;-71
2023/02/24 12:08:04;;;;;;;76.25;45.00;;;;;;;;;;6265245;28;20051;-70
2023/02/24 12:11:10;;;;;;;83.40;47.30;;;;;;;;;;6263071;28;20053;-70
2023/02/24 12:14:19;;;;;;;83.05;45.85;;;;;;;;;;6265308;28;20045;-70
2023/02/24 12:17:26;;;;;;;79.43;43.85;;;;;;;;;;6263804;28;20095;-70
2023/02/24 12:20:30;;;;;;;82.25;46.80;;;;;;;;;;6264112;28;20049;-68
2023/02/24 12:23:36;;;;;;;81.70;46.88;;;;;;;;;;6264487;28;20073;-70
2023/02/24 12:26:43;;;;;;;79.47;45.65;;;;;;;;;;6264421;28;20396;-69
2023/02/24 12:30:21;;;;;;;84.65;45.35;;;;;;;;;;6263752;28;20957;-71
2023/02/24 12:33:51;;;;;;;75.38;44.28;;;;;;;;;;6262920;28;20054;-69
2023/02/24 12:37:07;;;;;;;78.95;45.80;;;;;;;;;;6258079;28;20071;-70
2023/02/24 12:40:25;;;;;;;77.82;43.38;;;;;;;;;;6262341;28;20059;-70
2023/02/24 12:43:31;;;;;;;73.60;43.13;;;;;;;;;;6261925;28;20222;-68
2023/02/24 12:46:34;;;;;;;81.43;46.53;;;;;;;;;;6262813;28;20057;-70
2023/02/24 12:49:54;;;;;;;84.43;45.17;;;;;;;;;;6262827;28;20050;-68
2023/02/24 12:53:02;;;;;;;81.63;45.47;;;;;;;;;;6263418;28;20049;-70
2023/02/24 12:56:10;;;;;;;82.45;46.08;;;;;;;;;;6261708;28;20049;-69
2023/02/24 12:59:14;;;;;;;78.20;45.00;;;;;;;;;;6261243;28;20061;-71
2023/02/24 13:02:24;;;;;;;74.88;42.05;;;;;;;;;;6261647;28;20677;-71
2023/02/24 13:05:31;;;;;;;74.72;39.35;;;;;;;;;;6263792;28;20049;-71
2023/02/24 13:08:41;;;;;;;76.25;43.47;;;;;;;;;;6264307;28;20049;-72
2023/02/24 13:11:48;;;;;;;78.93;43.97;;;;;;;;;;6261461;28;20291;-71
2023/02/24 13:14:50;;;;;;;82.97;44.40;;;;;;;;;;6262056;28;20272;-71
2023/02/24 13:17:54;;;;;;;79.50;44.63;;;;;;;;;;6263530;28;20854;-71
2023/02/24 13:21:07;;;;;;;77.05;43.40;;;;;;;;;;6262430;28;21832;-74
2023/02/24 13:24:20;;;;;;;74.90;44.08;;;;;;;;;;6262721;28;20095;-72
2023/02/24 13:27:25;;;;;;;81.38;44.63;;;;;;;;;;6259693;28;20102;-75
2023/02/24 13:30:32;;;;;;;80.13;43.42;;;;;;;;;;6262230;28;20152;-74
2023/02/24 13:33:36;;;;;;;83.57;45.47;;;;;;;;;;6266390;28;20783;-74
2023/02/24 13:36:46;;;;;;;82.97;46.00;;;;;;;;;;6270665;28;20115;-74
2023/02/24 13:39:48;;;;;;;83.00;44.92;;;;;;;;;;6271215;28;20086;-74
2023/02/24 13:42:59;;;;;;;86.93;44.88;;;;;;;;;;6266424;28;20065;-75
2023/02/24 13:46:17;;;;;;;73.88;42.92;;;;;;;;;;6268102;28;20337;-74
2023/02/24 13:49:26;;;;;;;73.20;42.70;;;;;;;;;;6269623;28;20053;-74
2023/02/24 13:52:39;;;;;;;70.57;41.60;;;;;;;;;;6269146;28;20049;-74
2023/02/24 13:55:54;;;;;;;80.45;42.53;;;;;;;;;;6265760;28;20060;-74
2023/02/24 13:59:39;;;;;;;73.30;41.10;;;;;;;;;;6266110;28;20345;-74
2023/02/24 14:02:42;;;;;;;74.97;42.50;;;;;;;;;;6264957;28;20111;-74
2023/02/24 14:05:45;;;;;;;75.65;42.55;;;;;;;;;;6264454;28;20045;-74
2023/02/24 14:08:50;;;;;;;73.70;42.10;;;;;;;;;;6268285;28;20478;-74
2023/02/24 14:11:55;;;;;;;71.28;40.90;;;;;;;;;;6266444;28;20112;-75
2023/02/24 14:15:13;;;;;;;77.82;41.90;;;;;;;;;;6267947;28;20057;-73
2023/02/24 14:18:19;;;;;;;71.13;40.92;;;;;;;;;;6256870;28;20127;-73
2023/02/24 14:21:25;;;;;;;589.20;341.08;;;;;;;;;;6265386;28;20051;-76
2023/02/24 14:24:28;;;;;;;174.32;97.15;;;;;;;;;;6269986;28;20108;-74
2023/02/24 14:27:30;;;;;;;76.47;45.33;;;;;;;;;;6236958;28;20111;-74
2023/02/24 14:30:35;;;;;;;79.28;43.17;;;;;;;;;;6268812;28;20142;-73
2023/02/24 14:33:39;;;;;;;82.38;42.72;;;;;;;;;;6265764;28;20053;-74
2023/02/24 14:36:44;;;;;;;72.75;43.53;;;;;;;;;;6265974;28;20086;-74
2023/02/24 14:39:51;;;;;;;80.88;43.33;;;;;;;;;;6264015;28;20333;-74
2023/02/24 14:42:55;;;;;;;70.07;40.85;;;;;;;;;;6267738;28;20045;-73
2023/02/24 14:46:05;;;;;;;79.55;43.95;;;;;;;;;;6265109;28;20049;-73
2023/02/24 14:49:18;;;;;;;72.10;41.17;;;;;;;;;;6266357;28;20061;-73
2023/02/24 14:52:26;;;;;;;73.88;39.78;;;;;;;;;;6267308;28;20060;-73
2023/02/24 14:55:42;;;;;;;60.10;32.30;;;;;;;;;;6263110;28;20053;-73
2023/02/24 14:58:50;;;;;;;59.33;30.98;;;;;;;;;;6266372;28;20053;-72
2023/02/24 15:01:54;;;;;;;59.22;30.70;;;;;;;;;;6263217;28;20112;-73
2023/02/24 15:04:56;;;;;;;52.05;29.40;;;;;;;;;;6267764;28;20057;-73
2023/02/24 15:07:59;;;;;;;60.17;29.45;;;;;;;;;;6267552;28;20095;-73
2023/02/24 15:11:10;;;;;;;46.28;27.20;;;;;;;;;;6267725;28;20060;-73
2023/02/24 15:14:20;;;;;;;51.30;26.83;;;;;;;;;;6261775;28;20052;-73
2023/02/24 15:17:24;;;;;;;49.92;24.65;;;;;;;;;;6270572;28;20044;-73
2023/02/24 15:20:32;;;;;;;42.15;25.52;;;;;;;;;;6267246;28;20045;-73
2023/02/24 15:23:36;;;;;;;48.38;26.08;;;;;;;;;;6265470;28;20111;-72
2023/02/24 15:26:38;;;;;;;46.60;25.05;;;;;;;;;;6266929;28;20378;-71
2023/02/24 15:29:41;;;;;;;48.92;26.30;;;;;;;;;;6266593;28;20284;-72
2023/02/24 15:32:45;;;;;;;49.28;25.35;;;;;;;;;;6269502;28;20061;-73
2023/02/24 15:35:49;;;;;;;45.03;24.67;;;;;;;;;;6265304;28;20132;-72
2023/02/24 15:38:53;;;;;;;41.08;24.75;;;;;;;;;;6264154;28;20469;-71
2023/02/24 15:42:07;;;;;;;39.42;22.85;;;;;;;;;;6263841;28;20245;-71
2023/02/24 15:45:24;;;;;;;39.55;23.40;;;;;;;;;;6267145;28;20045;-73
2023/02/24 15:48:28;;;;;;;40.80;21.40;;;;;;;;;;6263581;28;20369;-73
2023/02/24 15:51:34;;;;;;;44.10;24.58;;;;;;;;;;6263702;28;20053;-73
2023/02/24 15:54:37;;;;;;;44.00;23.13;;;;;;;;;;6265960;28;20053;-73
2023/02/24 15:57:39;;;;;;;40.13;23.52;;;;;;;;;;6263630;28;20490;-72
2023/02/24 16:00:41;;;;;;;40.25;23.10;;;;;;;;;;6266263;28;20053;-73
2023/02/24 16:03:45;;;;;;;39.30;24.20;;;;;;;;;;6262817;28;20057;-72
2023/02/24 16:06:53;;;;;;;42.50;21.88;;;;;;;;;;6265781;28;20057;-73
2023/02/24 16:09:55;;;;;;;37.45;22.02;;;;;;;;;;6263574;28;20095;-72
2023/02/24 16:12:59;;;;;;;37.55;21.70;;;;;;;;;;6263894;28;20072;-73
2023/02/24 16:16:01;;;;;;;39.75;23.50;;;;;;;;;;6264752;28;20041;-72
2023/02/24 16:19:04;;;;;;;40.63;22.88;;;;;;;;;;6265282;28;20384;-73
2023/02/24 16:22:06;;;;;;;43.17;23.73;;;;;;;;;;6263852;28;20094;-73
2023/02/24 16:25:08;;;;;;;41.65;22.58;;;;;;;;;;6265834;28;20462;-72
2023/02/24 16:28:13;;;;;;;40.05;22.35;;;;;;;;;;6264551;28;20132;-72
2023/02/24 16:31:16;;;;;;;36.60;21.50;;;;;;;;;;6262301;28;20060;-72
2023/02/24 16:34:19;;;;;;;38.60;21.75;;;;;;;;;;6263058;28;20095;-72
2023/02/24 16:37:23;;;;;;;40.50;23.33;;;;;;;;;;6264860;28;20063;-73
2023/02/24 16:40:26;;;;;;;;;;;;;;;;;;6265379;28;20048;-73
2023/02/24 16:43:28;;;;;;;45.67;23.80;;;;;;;;;;6264795;28;19924;-73
2023/02/24 16:46:36;;;;;;;41.45;23.95;;;;;;;;;;6264348;28;20053;-73
2023/02/24 16:49:40;;;;;;;39.15;23.55;;;;;;;;;;6263006;28;20315;-73
2023/02/24 16:52:42;;;;;;;43.70;24.05;;;;;;;;;;6262975;28;20059;-73
2023/02/24 16:55:44;;;;;;;45.55;25.80;;;;;;;;;;6238843;28;20049;-72
2023/02/24 16:58:46;;;;;;;44.55;24.75;;;;;;;;;;6239381;28;20068;-73
2023/02/24 17:01:48;;;;;;;43.85;23.42;;;;;;;;;;6238598;28;20349;-73
2023/02/24 17:04:51;;;;;;;47.10;26.02;;;;;;;;;;6238048;28;20096;-73
2023/02/24 17:07:55;;;;;;;47.63;25.45;;;;;;;;;;6265301;28;20091;-73
2023/02/24 17:10:56;;;;;;;46.00;25.55;;;;;;;;;;6266858;28;20061;-71
2023/02/24 17:13:58;;;;;;;41.63;23.90;;;;;;;;;;6267265;28;20085;-73
2023/02/24 17:17:00;;;;;;;41.83;23.30;;;;;;;;;;6268163;28;20345;-73
2023/02/24 17:20:04;;;;;;;44.75;25.90;;;;;;;;;;6269790;28;20115;-72
2023/02/24 17:23:06;;;;;;;42.47;24.30;;;;;;;;;;6267651;28;20045;-73
2023/02/24 17:26:08;;;;;;;46.00;25.10;;;;;;;;;;6267910;28;20053;-73
2023/02/24 17:29:11;;;;;;;41.90;24.45;;;;;;;;;;6267275;28;20071;-72
2023/02/24 17:32:13;;;;;;;42.83;25.13;;;;;;;;;;6269666;28;20057;-74
2023/02/24 17:35:16;;;;;;;46.17;26.58;;;;;;;;;;6268957;28;20049;-73
2023/02/24 17:38:21;;;;;;;48.15;26.08;;;;;;;;;;6269671;28;20317;-73
2023/02/24 17:41:23;;;;;;;47.58;27.77;;;;;;;;;;6269186;28;20037;-73
2023/02/24 17:44:24;;;;;;;52.30;28.75;;;;;;;;;;6267291;28;20222;-72
2023/02/24 17:47:27;;;;;;;48.50;27.42;;;;;;;;;;6269433;28;20048;-73
2023/02/24 17:50:30;;;;;;;47.78;26.27;;;;;;;;;;6267663;28;20055;-73
2023/02/24 17:53:32;;;;;;;50.63;27.63;;;;;;;;;;6267706;28;20124;-72
2023/02/24 17:56:34;;;;;;;47.58;26.75;;;;;;;;;;6267182;28;20045;-73
2023/02/24 17:59:36;;;;;;;46.53;26.90;;;;;;;;;;6269702;28;20052;-73
2023/02/24 18:02:37;;;;;;;46.25;27.08;;;;;;;;;;6267351;28;20075;-73
2023/02/24 18:05:41;;;;;;;46.75;26.50;;;;;;;;;;6265499;28;20080;-73
2023/02/24 18:08:43;;;;;;;48.72;28.35;;;;;;;;;;6268527;28;20435;-73
2023/02/24 18:11:46;;;;;;;48.97;27.50;;;;;;;;;;6267764;28;20068;-72